Time;durP1;ratioP1;P1;durP2;ratioP2;P2;SDS_P1;SDS_P2;PMS_P1;PMS_P2;Temp;Humidity;BMP_temperature;BMP_pressure;BME280_temperature;BME280_humidity;BME280_pressure;Samples;Min_cycle;Max_cycle;Signal;HPM_P1;HPM_P2
2023/06/09 00:00:47;;;;;;;18.02;7.43;;;;;;;;;;5009501;28;20026;-72
2023/06/09 00:03:16;;;;;;;17.77;7.43;;;;;;;;;;5007691;28;20025;-72
2023/06/09 00:05:42;;;;;;;15.38;7.72;;;;;;;;;;5011922;28;20109;-72
2023/06/09 00:08:08;;;;;;;21.65;8.02;;;;;;;;;;5011519;28;20418;-71
2023/06/09 00:10:34;;;;;;;16.55;7.95;;;;;;;;;;5011993;28;20064;-72
2023/06/09 00:13:00;;;;;;;18.17;7.97;;;;;;;;;;5011189;28;20042;-72
2023/06/09 00:15:26;;;;;;;18.83;8.25;;;;;;;;;;5011491;28;20052;-72
2023/06/09 00:17:53;;;;;;;16.20;7.70;;;;;;;;;;5012742;28;20079;-72
2023/06/09 00:20:20;;;;;;;18.13;8.05;;;;;;;;;;5027988;28;20439;-72
2023/06/09 00:22:48;;;;;;;19.13;8.25;;;;;;;;;;5012564;28;20106;-72
2023/06/09 00:25:15;;;;;;;15.93;8.13;;;;;;;;;;5012966;28;20034;-71
2023/06/09 00:27:43;;;;;;;18.05;8.50;;;;;;;;;;5013264;28;20030;-73
2023/06/09 00:30:10;;;;;;;17.35;8.52;;;;;;;;;;5012865;28;20053;-71
2023/06/09 00:32:36;;;;;;;21.75;8.63;;;;;;;;;;5012650;28;20487;-72
2023/06/09 00:35:02;;;;;;;17.58;7.97;;;;;;;;;;5027966;28;20507;-71
2023/06/09 00:37:28;;;;;;;17.33;7.78;;;;;;;;;;5013524;28;20038;-71
2023/06/09 00:39:54;;;;;;;15.90;7.63;;;;;;;;;;5015719;28;20033;-73
2023/06/09 00:42:20;;;;;;;18.67;7.93;;;;;;;;;;5015869;28;20079;-72
2023/06/09 00:44:46;;;;;;;21.85;8.00;;;;;;;;;;5016743;28;20030;-72
2023/06/09 00:47:12;;;;;;;20.67;8.38;;;;;;;;;;5016409;28;20026;-72
2023/06/09 00:49:39;;;;;;;16.90;8.43;;;;;;;;;;5015357;28;20025;-72
2023/06/09 00:52:06;;;;;;;23.23;8.63;;;;;;;;;;5012302;28;20498;-71
2023/06/09 00:54:32;;;;;;;22.27;8.23;;;;;;;;;;5012478;28;20025;-72
2023/06/09 00:56:58;;;;;;;17.13;7.25;;;;;;;;;;5012443;28;20097;-73
2023/06/09 00:59:25;;;;;;;16.75;7.95;;;;;;;;;;5012320;28;20442;-72
2023/06/09 01:01:52;;;;;;;18.90;9.52;;;;;;;;;;5012052;28;20060;-71
2023/06/09 01:04:19;;;;;;;18.95;8.80;;;;;;;;;;5027604;28;20057;-72
2023/06/09 01:07:00;;;;;;;19.48;8.07;;;;;;;;;;5012259;28;20487;-73
2023/06/09 01:09:30;;;;;;;18.48;7.93;;;;;;;;;;5012063;28;20051;-73
2023/06/09 01:12:17;;;;;;;20.45;8.85;;;;;;;;;;5011617;28;20026;-72
2023/06/09 01:14:48;;;;;;;19.48;9.00;;;;;;;;;;4991254;28;20038;-72
2023/06/09 01:17:18;;;;;;;16.17;8.05;;;;;;;;;;5012037;28;20026;-72
2023/06/09 01:19:46;;;;;;;17.45;8.75;;;;;;;;;;5011963;28;20036;-72
2023/06/09 01:22:18;;;;;;;18.10;8.82;;;;;;;;;;5011626;28;20080;-72
2023/06/09 01:24:54;;;;;;;19.58;8.75;;;;;;;;;;5012312;28;20444;-72
2023/06/09 01:27:21;;;;;;;17.33;8.52;;;;;;;;;;5011858;28;20113;-73
2023/06/09 01:29:48;;;;;;;17.73;8.48;;;;;;;;;;5012110;28;20091;-70
2023/06/09 01:32:15;;;;;;;16.08;8.20;;;;;;;;;;5011726;28;20076;-72
2023/06/09 01:34:41;;;;;;;20.38;8.85;;;;;;;;;;5012081;28;20087;-72
2023/06/09 01:37:08;;;;;;;18.73;9.00;;;;;;;;;;5011999;28;20510;-72
2023/06/09 01:39:34;;;;;;;23.98;9.13;;;;;;;;;;5012796;28;20036;-73
2023/06/09 01:42:00;;;;;;;16.48;8.25;;;;;;;;;;5013039;28;20037;-72
2023/06/09 01:44:26;;;;;;;20.45;8.38;;;;;;;;;;5011989;28;20022;-72
2023/06/09 01:46:52;;;;;;;21.45;8.98;;;;;;;;;;5011697;28;20112;-71
2023/06/09 01:49:21;;;;;;;18.08;8.93;;;;;;;;;;5011372;28;20028;-72
2023/06/09 01:51:47;;;;;;;13.80;7.75;;;;;;;;;;5011207;28;20392;-71
2023/06/09 01:54:16;;;;;;;19.63;8.73;;;;;;;;;;5008886;28;20077;-72
2023/06/09 01:56:44;;;;;;;15.40;7.95;;;;;;;;;;5010317;28;20575;-72
2023/06/09 01:59:14;;;;;;;19.73;9.02;;;;;;;;;;5010315;28;20026;-71
2023/06/09 02:01:42;;;;;;;16.35;8.43;;;;;;;;;;5010364;28;20022;-72
2023/06/09 02:04:09;;;;;;;19.58;8.80;;;;;;;;;;5010180;28;20034;-72
2023/06/09 02:06:36;;;;;;;16.77;8.00;;;;;;;;;;5010083;28;20550;-72
2023/06/09 02:09:02;;;;;;;18.00;8.40;;;;;;;;;;5010805;28;20423;-72
2023/06/09 02:11:28;;;;;;;20.20;9.10;;;;;;;;;;5010642;28;20075;-73
2023/06/09 02:13:54;;;;;;;16.10;8.90;;;;;;;;;;5010778;28;20057;-71
2023/06/09 02:16:21;;;;;;;21.83;9.57;;;;;;;;;;5011510;28;20026;-72
2023/06/09 02:18:48;;;;;;;17.58;9.07;;;;;;;;;;5010310;28;20455;-72
2023/06/09 02:21:14;;;;;;;16.13;9.02;;;;;;;;;;5009828;28;20018;-71
2023/06/09 02:23:40;;;;;;;16.65;8.60;;;;;;;;;;5009663;28;20034;-72
2023/06/09 02:26:06;;;;;;;15.48;8.82;;;;;;;;;;5009965;28;20061;-72
2023/06/09 02:28:35;;;;;;;17.70;9.27;;;;;;;;;;5010337;28;20117;-72
2023/06/09 02:31:03;;;;;;;18.70;9.65;;;;;;;;;;5009925;28;20056;-72
2023/06/09 02:33:29;;;;;;;17.98;9.48;;;;;;;;;;5008888;28;20476;-72
2023/06/09 02:35:55;;;;;;;23.73;9.85;;;;;;;;;;5010032;28;20030;-71
2023/06/09 02:38:21;;;;;;;19.27;9.23;;;;;;;;;;5010482;28;20026;-71
2023/06/09 02:40:48;;;;;;;23.17;10.07;;;;;;;;;;5013741;28;20049;-72
2023/06/09 02:43:14;;;;;;;17.67;9.23;;;;;;;;;;5012907;28;20526;-71
2023/06/09 02:45:40;;;;;;;21.23;10.10;;;;;;;;;;5012908;28;20058;-72
2023/06/09 02:48:06;;;;;;;19.23;10.07;;;;;;;;;;5014747;28;20041;-72
2023/06/09 02:50:32;;;;;;;22.83;9.48;;;;;;;;;;5014430;28;20087;-72
2023/06/09 02:52:58;;;;;;;30.17;12.50;;;;;;;;;;5013850;28;20322;-72
2023/06/09 02:55:24;;;;;;;21.58;9.88;;;;;;;;;;5013569;28;20021;-72
2023/06/09 02:57:51;;;;;;;17.90;9.60;;;;;;;;;;5014101;28;20072;-70
2023/06/09 03:00:17;;;;;;;25.25;9.98;;;;;;;;;;5014320;28;20026;-71
2023/06/09 03:02:45;;;;;;;20.98;9.48;;;;;;;;;;5014182;28;20499;-71
2023/06/09 03:05:11;;;;;;;18.90;9.68;;;;;;;;;;5014174;28;20438;-72
2023/06/09 03:07:37;;;;;;;19.40;9.15;;;;;;;;;;5014136;28;20064;-72
2023/06/09 03:10:06;;;;;;;22.30;10.18;;;;;;;;;;5013840;28;20034;-71
2023/06/09 03:12:32;;;;;;;22.25;9.77;;;;;;;;;;5014346;28;20022;-72
2023/06/09 03:14:58;;;;;;;23.90;10.02;;;;;;;;;;5015033;28;20022;-72
2023/06/09 03:17:25;;;;;;;24.77;10.27;;;;;;;;;;5015745;28;20029;-72
2023/06/09 03:19:51;;;;;;;23.55;10.48;;;;;;;;;;5015112;28;20026;-71
2023/06/09 03:22:17;;;;;;;23.15;9.48;;;;;;;;;;5015820;28;20156;-72
2023/06/09 03:24:44;;;;;;;16.92;9.00;;;;;;;;;;5016502;28;20487;-70
2023/06/09 03:27:11;;;;;;;21.42;9.45;;;;;;;;;;5014986;28;20541;-72
2023/06/09 03:29:36;;;;;;;17.65;9.38;;;;;;;;;;5014149;28;20030;-72
2023/06/09 03:32:03;;;;;;;18.92;9.43;;;;;;;;;;5013751;28;20038;-71
2023/06/09 03:34:29;;;;;;;24.00;9.57;;;;;;;;;;5013966;28;20096;-72
2023/06/09 03:36:55;;;;;;;21.95;10.15;;;;;;;;;;5013742;28;20014;-72
2023/06/09 03:39:21;;;;;;;20.27;9.77;;;;;;;;;;5014874;28;20026;-71
2023/06/09 03:41:47;;;;;;;25.90;9.02;;;;;;;;;;5015168;28;20033;-73
2023/06/09 03:44:13;;;;;;;23.08;9.75;;;;;;;;;;5014770;28;20365;-72
2023/06/09 03:46:39;;;;;;;22.50;10.02;;;;;;;;;;5013808;28;20026;-73
2023/06/09 03:49:05;;;;;;;20.48;8.70;;;;;;;;;;5015165;28;20026;-73
2023/06/09 03:51:31;;;;;;;19.48;9.02;;;;;;;;;;5012915;28;20061;-74
2023/06/09 03:53:57;;;;;;;28.00;10.25;;;;;;;;;;5013811;28;20026;-74
2023/06/09 03:56:23;;;;;;;26.70;9.65;;;;;;;;;;5013231;28;20505;-72
2023/06/09 03:58:49;;;;;;;25.80;9.13;;;;;;;;;;5013417;28;20111;-72
2023/06/09 04:01:17;;;;;;;22.30;10.40;;;;;;;;;;5013416;28;20026;-73
2023/06/09 04:03:43;;;;;;;21.63;9.00;;;;;;;;;;5012820;28;20542;-72
2023/06/09 04:06:09;;;;;;;22.42;9.70;;;;;;;;;;5013475;28;20041;-72
2023/06/09 04:08:36;;;;;;;28.70;9.75;;;;;;;;;;5013276;28;20521;-71
2023/06/09 04:11:02;;;;;;;22.40;9.32;;;;;;;;;;5013392;28;20030;-73
2023/06/09 04:13:28;;;;;;;30.67;9.98;;;;;;;;;;5014116;28;20052;-72
2023/06/09 04:15:54;;;;;;;25.27;8.13;;;;;;;;;;5013811;28;20018;-72
2023/06/09 04:18:20;;;;;;;18.83;8.73;;;;;;;;;;5013674;28;20026;-71
2023/06/09 04:20:46;;;;;;;26.25;9.07;;;;;;;;;;5013499;28;20144;-72
2023/06/09 04:23:12;;;;;;;21.38;8.52;;;;;;;;;;5012690;28;20120;-72
2023/06/09 04:25:39;;;;;;;23.42;8.63;;;;;;;;;;5013428;28;20037;-71
2023/06/09 04:28:05;;;;;;;24.35;9.50;;;;;;;;;;5013498;28;20096;-72
2023/06/09 04:30:34;;;;;;;22.70;8.10;;;;;;;;;;5012958;28;20085;-71
2023/06/09 04:33:00;;;;;;;22.83;8.60;;;;;;;;;;5012689;28;20045;-71
2023/06/09 04:35:26;;;;;;;28.20;9.30;;;;;;;;;;5011410;28;20034;-72
2023/06/09 04:37:52;;;;;;;27.60;8.82;;;;;;;;;;5012665;28;20036;-71
2023/06/09 04:40:23;;;;;;;22.23;8.40;;;;;;;;;;5012552;28;20026;-72
2023/06/09 04:42:53;;;;;;;21.45;8.32;;;;;;;;;;5012593;28;20472;-72
2023/06/09 04:45:20;;;;;;;24.58;8.48;;;;;;;;;;5012586;28;20478;-73
2023/06/09 04:47:49;;;;;;;28.75;8.52;;;;;;;;;;5012504;28;20456;-73
2023/06/09 04:50:19;;;;;;;18.85;7.75;;;;;;;;;;5012581;28;20041;-73
2023/06/09 04:52:45;;;;;;;28.45;7.40;;;;;;;;;;5007056;28;20030;-74
2023/06/09 04:55:12;;;;;;;22.63;7.65;;;;;;;;;;5012479;28;20070;-76
2023/06/09 04:57:38;;;;;;;20.50;7.60;;;;;;;;;;5012445;28;20192;-74
2023/06/09 05:00:07;;;;;;;19.75;7.10;;;;;;;;;;5013197;28;20383;-71
2023/06/09 05:02:33;;;;;;;20.77;7.15;;;;;;;;;;5011757;28;20041;-71
2023/06/09 05:04:59;;;;;;;23.85;7.32;;;;;;;;;;5012257;28;20022;-72
2023/06/09 05:07:26;;;;;;;28.20;6.88;;;;;;;;;;5013878;28;20476;-73
2023/06/09 05:09:52;;;;;;;22.27;8.07;;;;;;;;;;5012584;28;20034;-72
2023/06/09 05:12:18;;;;;;;22.25;7.70;;;;;;;;;;5014362;28;20030;-73
2023/06/09 05:14:44;;;;;;;27.00;7.53;;;;;;;;;;5015106;28;20033;-72
2023/06/09 05:17:10;;;;;;;22.77;6.82;;;;;;;;;;5015300;28;20053;-71
2023/06/09 05:19:36;;;;;;;16.77;6.43;;;;;;;;;;5014640;28;20348;-72
2023/06/09 05:22:02;;;;;;;21.50;7.30;;;;;;;;;;5011969;28;20026;-73
2023/06/09 05:24:28;;;;;;;26.40;7.57;;;;;;;;;;5017012;28;20034;-71
2023/06/09 05:26:54;;;;;;;23.27;7.22;;;;;;;;;;5012939;28;20022;-72
2023/06/09 05:29:20;;;;;;;25.42;8.57;;;;;;;;;;5012205;28;20096;-76
2023/06/09 05:31:46;;;;;;;18.00;6.95;;;;;;;;;;5011850;28;20061;-73
2023/06/09 05:34:12;;;;;;;30.95;8.05;;;;;;;;;;5011703;28;20026;-72
2023/06/09 05:36:38;;;;;;;20.33;7.25;;;;;;;;;;5011632;28;20033;-73
2023/06/09 05:39:04;;;;;;;19.77;6.68;;;;;;;;;;5011751;28;20022;-73
2023/06/09 05:41:30;;;;;;;17.58;6.80;;;;;;;;;;5011512;28;20129;-73
2023/06/09 05:43:57;;;;;;;24.40;7.07;;;;;;;;;;5011569;28;20373;-73
2023/06/09 05:46:24;;;;;;;19.00;6.38;;;;;;;;;;5012029;28;20527;-76
2023/06/09 05:48:51;;;;;;;21.80;7.00;;;;;;;;;;5011791;28;20496;-74
2023/06/09 05:51:17;;;;;;;16.80;6.47;;;;;;;;;;5011919;28;20045;-72
2023/06/09 05:53:43;;;;;;;18.38;6.28;;;;;;;;;;5009261;28;20030;-79
2023/06/09 05:56:09;;;;;;;25.77;7.05;;;;;;;;;;4996124;28;20032;-75
2023/06/09 05:58:35;;;;;;;26.40;6.75;;;;;;;;;;5010628;28;20462;-76
2023/06/09 06:01:03;;;;;;;21.85;7.00;;;;;;;;;;5012392;28;20037;-71
2023/06/09 06:03:29;;;;;;;17.60;6.25;;;;;;;;;;5009359;28;20112;-74
2023/06/09 06:05:55;;;;;;;24.23;6.47;;;;;;;;;;5011973;28;20515;-75
2023/06/09 06:08:21;;;;;;;16.55;6.43;;;;;;;;;;5017033;28;20085;-78
2023/06/09 06:10:47;;;;;;;20.33;7.20;;;;;;;;;;5012271;28;20518;-72
2023/06/09 06:13:13;;;;;;;16.73;6.40;;;;;;;;;;5012199;28;20026;-72
2023/06/09 06:15:39;;;;;;;19.27;6.60;;;;;;;;;;5017059;28;20110;-74
2023/06/09 06:18:05;;;;;;;18.83;6.13;;;;;;;;;;5015333;28;20144;-76
2023/06/09 06:20:31;;;;;;;13.80;6.00;;;;;;;;;;5007319;28;20117;-74
2023/06/09 06:22:58;;;;;;;21.08;7.00;;;;;;;;;;5015176;28;20026;-73
2023/06/09 06:25:25;;;;;;;26.05;6.20;;;;;;;;;;5016075;28;20041;-73
2023/06/09 06:27:51;;;;;;;20.10;6.90;;;;;;;;;;5016033;28;20029;-71
2023/06/09 06:30:17;;;;;;;18.05;6.88;;;;;;;;;;5016821;28;20028;-71
2023/06/09 06:32:50;;;;;;;15.55;6.57;;;;;;;;;;5015097;28;20398;-72
2023/06/09 06:35:23;;;;;;;20.02;6.38;;;;;;;;;;5015430;28;20022;-71
2023/06/09 06:37:49;;;;;;;18.08;6.38;;;;;;;;;;5015394;28;20022;-72
2023/06/09 06:40:15;;;;;;;26.38;6.38;;;;;;;;;;5016973;28;20072;-71
2023/06/09 06:42:41;;;;;;;21.77;6.43;;;;;;;;;;5016299;28;20033;-71
2023/06/09 06:45:07;;;;;;;18.25;6.53;;;;;;;;;;5018188;28;20101;-70
2023/06/09 06:47:33;;;;;;;17.13;5.97;;;;;;;;;;5020312;28;20088;-71
2023/06/09 06:49:59;;;;;;;24.67;6.95;;;;;;;;;;5014295;28;20041;-72
2023/06/09 06:52:25;;;;;;;22.23;7.07;;;;;;;;;;5015178;28;20068;-73
2023/06/09 06:54:51;;;;;;;20.98;6.40;;;;;;;;;;5018813;28;20553;-73
2023/06/09 06:57:17;;;;;;;23.33;6.43;;;;;;;;;;5015136;28;20038;-71
2023/06/09 06:59:43;;;;;;;26.20;7.05;;;;;;;;;;5013419;28;20052;-75
2023/06/09 07:02:09;;;;;;;23.80;6.50;;;;;;;;;;5013137;28;20038;-70
2023/06/09 07:04:36;;;;;;;18.58;6.72;;;;;;;;;;5018569;28;20158;-71
2023/06/09 07:07:02;;;;;;;18.50;6.13;;;;;;;;;;5017064;28;20152;-71
2023/06/09 07:09:28;;;;;;;16.60;6.05;;;;;;;;;;5015446;28;20046;-70
2023/06/09 07:11:54;;;;;;;19.33;6.15;;;;;;;;;;5015321;28;20029;-72
2023/06/09 07:14:20;;;;;;;16.23;5.07;;;;;;;;;;4997050;28;20109;-70
2023/06/09 07:16:46;;;;;;;18.75;6.03;;;;;;;;;;5017778;28;20112;-72
2023/06/09 07:19:12;;;;;;;13.98;5.35;;;;;;;;;;5013769;28;20656;-72
2023/06/09 07:21:38;;;;;;;15.75;6.15;;;;;;;;;;5013180;28;20054;-71
2023/06/09 07:24:04;;;;;;;19.10;5.88;;;;;;;;;;5012205;28;20545;-73
2023/06/09 07:26:31;;;;;;;16.38;5.65;;;;;;;;;;5013247;28;20088;-71
2023/06/09 07:28:57;;;;;;;16.60;6.43;;;;;;;;;;5012789;28;20113;-73
2023/06/09 07:31:23;;;;;;;15.85;6.18;;;;;;;;;;5014595;28;20069;-72
2023/06/09 07:33:49;;;;;;;24.83;6.57;;;;;;;;;;5012207;28;20635;-73
2023/06/09 07:36:15;;;;;;;23.80;6.93;;;;;;;;;;5012863;28;20534;-72
2023/06/09 07:38:44;;;;;;;17.17;6.75;;;;;;;;;;5012965;28;20026;-72
2023/06/09 07:41:10;;;;;;;19.98;6.85;;;;;;;;;;5015268;28;20018;-73
2023/06/09 07:43:36;;;;;;;21.75;6.97;;;;;;;;;;5013021;28;20026;-72
2023/06/09 07:46:02;;;;;;;17.63;6.90;;;;;;;;;;5012716;28;20025;-72
2023/06/09 07:48:28;;;;;;;17.42;6.53;;;;;;;;;;5012956;28;20029;-72
2023/06/09 07:50:54;;;;;;;14.43;5.70;;;;;;;;;;5012471;28;20033;-72
2023/06/09 07:53:23;;;;;;;14.20;5.75;;;;;;;;;;5011788;28;20030;-72
2023/06/09 07:55:49;;;;;;;15.00;5.50;;;;;;;;;;5011982;28;20026;-71
2023/06/09 07:58:15;;;;;;;14.38;6.35;;;;;;;;;;5013302;28;20076;-71
2023/06/09 08:00:41;;;;;;;15.13;6.18;;;;;;;;;;5013373;28;20486;-72
2023/06/09 08:03:07;;;;;;;22.50;6.32;;;;;;;;;;5012953;28;20037;-72
2023/06/09 08:05:33;;;;;;;19.38;6.22;;;;;;;;;;5013424;28;20395;-72
2023/06/09 08:08:03;;;;;;;16.80;5.65;;;;;;;;;;5013845;28;20034;-73
2023/06/09 08:10:28;;;;;;;18.77;6.15;;;;;;;;;;5013508;28;20033;-71
2023/06/09 08:12:54;;;;;;;17.45;6.03;;;;;;;;;;5013273;28;20026;-72
2023/06/09 08:15:21;;;;;;;16.05;6.07;;;;;;;;;;5013430;28;20427;-72
2023/06/09 08:17:47;;;;;;;14.40;5.32;;;;;;;;;;5013661;28;20037;-72
2023/06/09 08:20:13;;;;;;;17.23;6.22;;;;;;;;;;5014293;28;20025;-73
2023/06/09 08:22:39;;;;;;;16.25;6.38;;;;;;;;;;5013475;28;20032;-71
2023/06/09 08:25:05;;;;;;;11.93;5.45;;;;;;;;;;5013137;28;20028;-73
2023/06/09 08:27:31;;;;;;;20.95;6.40;;;;;;;;;;5013775;28;20691;-73
2023/06/09 08:29:57;;;;;;;17.75;5.88;;;;;;;;;;5012892;28;20057;-74
2023/06/09 08:32:23;;;;;;;15.40;6.07;;;;;;;;;;5012702;28;20034;-73
2023/06/09 08:34:49;;;;;;;19.55;6.15;;;;;;;;;;5013628;28;20026;-74
2023/06/09 08:37:15;;;;;;;14.32;6.03;;;;;;;;;;5013620;28;20025;-71
2023/06/09 08:39:41;;;;;;;16.42;5.85;;;;;;;;;;5012839;28;20022;-72
2023/06/09 08:42:11;;;;;;;20.88;6.47;;;;;;;;;;5012657;28;20036;-71
2023/06/09 08:44:42;;;;;;;16.45;5.78;;;;;;;;;;5016084;28;20018;-74
2023/06/09 08:47:08;;;;;;;13.98;5.30;;;;;;;;;;5012529;28;20032;-73
2023/06/09 08:49:35;;;;;;;18.10;6.22;;;;;;;;;;5012285;28;20395;-73
2023/06/09 08:52:03;;;;;;;14.65;5.63;;;;;;;;;;5012429;28;20040;-73
2023/06/09 08:54:30;;;;;;;14.38;5.55;;;;;;;;;;5013921;28;20030;-73
2023/06/09 08:56:56;;;;;;;11.50;5.40;;;;;;;;;;5015101;28;20064;-75
2023/06/09 08:59:23;;;;;;;16.00;6.00;;;;;;;;;;5012904;28;20394;-73
2023/06/09 09:01:49;;;;;;;14.10;5.90;;;;;;;;;;5012292;28;20026;-73
2023/06/09 09:04:16;;;;;;;20.48;6.18;;;;;;;;;;5012801;28;20030;-72
2023/06/09 09:06:42;;;;;;;15.00;4.95;;;;;;;;;;4995102;28;20384;-71
2023/06/09 09:09:08;;;;;;;16.73;5.68;;;;;;;;;;5013541;28;20033;-71
2023/06/09 09:11:35;;;;;;;14.20;5.55;;;;;;;;;;5013164;28;20022;-72
2023/06/09 09:14:10;;;;;;;11.48;5.15;;;;;;;;;;5013021;28;20030;-74
2023/06/09 09:16:36;;;;;;;15.95;6.32;;;;;;;;;;5014413;28;20460;-73
2023/06/09 09:19:03;;;;;;;16.13;5.68;;;;;;;;;;5016922;28;20456;-73
2023/06/09 09:21:29;;;;;;;14.30;5.78;;;;;;;;;;5015796;28;20052;-73
2023/06/09 09:24:01;;;;;;;18.42;6.70;;;;;;;;;;5014846;28;20068;-73
2023/06/09 09:26:28;;;;;;;14.77;5.20;;;;;;;;;;5012699;28;20018;-72
2023/06/09 09:28:58;;;;;;;12.63;5.13;;;;;;;;;;5012819;28;20033;-72
2023/06/09 09:31:33;;;;;;;15.88;5.60;;;;;;;;;;5008455;28;20472;-72
2023/06/09 09:34:00;;;;;;;14.02;5.70;;;;;;;;;;5011109;28;20041;-75
2023/06/09 09:36:26;;;;;;;10.57;5.57;;;;;;;;;;5012211;28;20436;-74
2023/06/09 09:38:55;;;;;;;11.73;5.55;;;;;;;;;;5012057;28;20026;-74
2023/06/09 09:41:21;;;;;;;14.25;5.32;;;;;;;;;;5011765;28;20395;-72
2023/06/09 09:43:47;;;;;;;13.48;5.25;;;;;;;;;;5015644;28;20033;-75
2023/06/09 09:46:14;;;;;;;13.35;6.47;;;;;;;;;;5012984;28;20036;-72
2023/06/09 09:48:40;;;;;;;11.48;5.80;;;;;;;;;;5011701;28;20033;-74
2023/06/09 09:51:08;;;;;;;10.70;5.35;;;;;;;;;;5012538;28;20029;-74
2023/06/09 09:53:35;;;;;;;13.70;6.15;;;;;;;;;;5011119;28;20022;-74
2023/06/09 09:56:01;;;;;;;13.18;6.25;;;;;;;;;;5009701;28;20017;-73
2023/06/09 09:58:29;;;;;;;17.40;5.53;;;;;;;;;;5011110;28;20084;-74
2023/06/09 10:00:57;;;;;;;22.20;8.75;;;;;;;;;;5011740;28;20399;-73
2023/06/09 10:03:24;;;;;;;14.63;6.13;;;;;;;;;;5012845;28;20040;-73
2023/06/09 10:05:50;;;;;;;11.88;6.00;;;;;;;;;;5013320;28;20030;-72
2023/06/09 10:08:16;;;;;;;14.88;6.00;;;;;;;;;;5012529;28;20503;-75
2023/06/09 10:10:42;;;;;;;15.10;5.90;;;;;;;;;;5011936;28;20036;-75
2023/06/09 10:13:08;;;;;;;15.85;6.32;;;;;;;;;;5014281;28;20084;-73
2023/06/09 10:15:35;;;;;;;14.77;5.82;;;;;;;;;;5012030;28;20116;-71
2023/06/09 10:18:02;;;;;;;11.45;5.22;;;;;;;;;;5011998;28;20026;-74
2023/06/09 10:20:28;;;;;;;14.80;5.05;;;;;;;;;;5011231;28;20026;-73
2023/06/09 10:22:55;;;;;;;17.60;7.65;;;;;;;;;;5011377;28;20030;-77
2023/06/09 10:25:24;;;;;;;11.27;5.25;;;;;;;;;;5012535;28;20108;-74
2023/06/09 10:27:50;;;;;;;18.48;5.75;;;;;;;;;;5011340;28;20018;-72
2023/06/09 10:30:16;;;;;;;16.17;5.63;;;;;;;;;;5011570;28;20030;-72
2023/06/09 10:32:48;;;;;;;15.43;5.20;;;;;;;;;;5011869;28;20560;-73
2023/06/09 10:35:17;;;;;;;12.23;5.50;;;;;;;;;;5011824;28;20052;-71
2023/06/09 10:37:46;;;;;;;13.43;5.95;;;;;;;;;;5011611;28;20029;-73
2023/06/09 10:40:23;;;;;;;11.90;4.93;;;;;;;;;;5011516;28;20387;-71
2023/06/09 10:43:04;;;;;;;11.10;5.88;;;;;;;;;;5012541;28;20030;-72
2023/06/09 10:45:49;;;;;;;12.15;4.93;;;;;;;;;;5011776;28;20520;-74
2023/06/09 10:48:35;;;;;;;13.30;4.75;;;;;;;;;;5012835;28;20033;-72
2023/06/09 10:51:19;;;;;;;13.60;4.82;;;;;;;;;;5011804;28;20034;-73
2023/06/09 10:54:05;;;;;;;14.07;5.65;;;;;;;;;;5010632;28;20026;-72
2023/06/09 10:56:35;;;;;;;8.60;4.97;;;;;;;;;;5011194;28;20025;-72
2023/06/09 10:59:02;;;;;;;16.10;5.07;;;;;;;;;;5011282;28;20037;-72
2023/06/09 11:01:28;;;;;;;8.52;5.00;;;;;;;;;;5015812;28;20052;-72
2023/06/09 11:03:54;;;;;;;8.20;4.72;;;;;;;;;;5016495;28;20033;-72
2023/06/09 11:06:20;;;;;;;10.27;4.82;;;;;;;;;;5016254;28;20388;-74
2023/06/09 11:09:06;;;;;;;11.70;4.70;;;;;;;;;;5015174;28;20030;-73
2023/06/09 11:11:47;;;;;;;9.43;4.80;;;;;;;;;;5014401;28;20101;-73
2023/06/09 11:14:32;;;;;;;10.85;5.15;;;;;;;;;;5013158;28;20551;-73
2023/06/09 11:16:58;;;;;;;;;;;;;;;;;;5014110;28;20025;-72
2023/06/09 11:19:24;;;;;;;8.45;4.30;;;;;;;;;;5013870;28;20028;-73
2023/06/09 11:22:02;;;;;;;12.70;6.15;;;;;;;;;;5014545;28;20462;-73
2023/06/09 11:24:47;;;;;;;12.40;4.85;;;;;;;;;;5015360;28;20025;-71
2023/06/09 11:27:17;;;;;;;11.18;5.40;;;;;;;;;;5015238;28;20046;-73
2023/06/09 11:29:43;;;;;;;12.77;5.70;;;;;;;;;;5014029;28;20030;-73
2023/06/09 11:32:09;;;;;;;11.48;5.97;;;;;;;;;;5013566;28;20030;-74
2023/06/09 11:34:56;;;;;;;9.00;5.20;;;;;;;;;;5014525;28;20021;-72
2023/06/09 11:37:22;;;;;;;15.80;5.45;;;;;;;;;;5015190;28;20111;-72
2023/06/09 11:39:49;;;;;;;12.23;5.85;;;;;;;;;;5013974;28;20022;-77
2023/06/09 11:42:17;;;;;;;8.27;4.60;;;;;;;;;;5014478;28;20022;-72
2023/06/09 11:44:43;;;;;;;10.38;4.80;;;;;;;;;;5013650;28;20480;-73
2023/06/09 11:47:29;;;;;;;8.40;4.93;;;;;;;;;;5013600;28;20033;-73
2023/06/09 11:50:02;;;;;;;8.35;5.35;;;;;;;;;;5013819;28;20032;-75
2023/06/09 11:52:28;;;;;;;10.68;5.65;;;;;;;;;;5013906;28;20056;-73
2023/06/09 11:54:54;;;;;;;9.63;4.68;;;;;;;;;;5014262;28;20025;-73
2023/06/09 11:57:22;;;;;;;13.02;5.25;;;;;;;;;;5013755;28;20463;-72
2023/06/09 11:59:48;;;;;;;11.90;4.88;;;;;;;;;;5013678;28;20491;-72
2023/06/09 12:02:16;;;;;;;9.73;4.32;;;;;;;;;;5013777;28;20491;-73
2023/06/09 12:04:43;;;;;;;7.13;4.30;;;;;;;;;;5014808;28;20069;-74
2023/06/09 12:07:13;;;;;;;11.63;4.75;;;;;;;;;;5014754;28;20029;-73
2023/06/09 12:09:42;;;;;;;8.75;4.88;;;;;;;;;;5014023;28;20038;-74
2023/06/09 12:12:08;;;;;;;11.00;5.18;;;;;;;;;;5012427;28;20049;-72
2023/06/09 12:14:34;;;;;;;10.85;4.70;;;;;;;;;;5013510;28;20348;-73
2023/06/09 12:17:00;;;;;;;12.98;4.70;;;;;;;;;;5013930;28;20029;-73
2023/06/09 12:19:26;;;;;;;7.22;4.40;;;;;;;;;;5011887;28;20067;-72
2023/06/09 12:21:52;;;;;;;9.18;4.32;;;;;;;;;;5010177;28;20049;-73
2023/06/09 12:24:18;;;;;;;8.18;4.45;;;;;;;;;;5013228;28;20059;-73
2023/06/09 12:26:47;;;;;;;14.18;5.72;;;;;;;;;;5013021;28;20088;-73
2023/06/09 12:29:13;;;;;;;12.93;5.38;;;;;;;;;;5013345;28;20037;-74
2023/06/09 12:31:46;;;;;;;16.13;7.72;;;;;;;;;;5013168;28;20071;-73
2023/06/09 12:34:29;;;;;;;17.80;9.32;;;;;;;;;;5012929;28;20026;-74
2023/06/09 12:36:58;;;;;;;13.65;5.40;;;;;;;;;;5013134;28;20033;-73
2023/06/09 12:39:25;;;;;;;11.63;4.45;;;;;;;;;;5012795;28;20029;-73
2023/06/09 12:41:51;;;;;;;9.93;4.57;;;;;;;;;;5013602;28;20053;-73
2023/06/09 12:44:24;;;;;;;8.50;4.75;;;;;;;;;;5012847;28;20033;-70
2023/06/09 12:46:56;;;;;;;8.68;4.10;;;;;;;;;;5013615;28;20025;-73
2023/06/09 12:49:30;;;;;;;8.80;5.13;;;;;;;;;;5013663;28;20475;-72
2023/06/09 12:51:56;;;;;;;8.90;3.83;;;;;;;;;;5015426;28;20042;-73
2023/06/09 12:54:22;;;;;;;11.88;4.00;;;;;;;;;;5016736;28;20041;-73
2023/06/09 12:56:48;;;;;;;10.35;4.10;;;;;;;;;;5016962;28;20022;-73
2023/06/09 12:59:14;;;;;;;6.78;4.18;;;;;;;;;;5015185;28;20022;-73
2023/06/09 13:01:40;;;;;;;7.05;4.30;;;;;;;;;;5015140;28;20068;-73
2023/06/09 13:04:07;;;;;;;11.38;7.55;;;;;;;;;;5019243;28;20034;-71
2023/06/09 13:06:36;;;;;;;7.88;3.55;;;;;;;;;;5020603;28;20049;-74
2023/06/09 13:09:02;;;;;;;7.28;4.05;;;;;;;;;;5018484;28;20037;-72
2023/06/09 13:11:28;;;;;;;8.75;3.70;;;;;;;;;;5016613;28;20367;-75
2023/06/09 13:13:55;;;;;;;7.45;4.10;;;;;;;;;;5011573;28;20030;-71
2023/06/09 13:16:21;;;;;;;6.38;3.38;;;;;;;;;;5012014;28;20022;-71
2023/06/09 13:18:47;;;;;;;10.05;4.03;;;;;;;;;;5012157;28;20380;-72
2023/06/09 13:21:13;;;;;;;7.10;4.30;;;;;;;;;;5012543;28;20026;-72
2023/06/09 13:23:39;;;;;;;9.35;4.55;;;;;;;;;;5011798;28;20439;-72
2023/06/09 13:26:05;;;;;;;8.13;3.92;;;;;;;;;;5012251;28;20180;-73
2023/06/09 13:28:31;;;;;;;7.60;4.60;;;;;;;;;;5012284;28;20059;-72
2023/06/09 13:30:57;;;;;;;10.25;4.72;;;;;;;;;;5011948;28;20036;-73
2023/06/09 13:33:24;;;;;;;5.18;3.22;;;;;;;;;;5012138;28;20026;-72
2023/06/09 13:35:50;;;;;;;7.32;3.92;;;;;;;;;;5012483;28;20102;-71
2023/06/09 13:38:16;;;;;;;10.55;4.30;;;;;;;;;;5012455;28;20026;-70
2023/06/09 13:40:44;;;;;;;8.85;4.00;;;;;;;;;;5012639;28;20018;-73
2023/06/09 13:43:13;;;;;;;6.53;3.60;;;;;;;;;;5012077;28;20322;-71
2023/06/09 13:45:39;;;;;;;6.20;3.30;;;;;;;;;;5012569;28;20064;-72
2023/06/09 13:48:05;;;;;;;9.25;3.78;;;;;;;;;;5012401;28;20026;-71
2023/06/09 13:50:31;;;;;;;9.18;3.40;;;;;;;;;;5010818;28;20439;-71
2023/06/09 13:52:57;;;;;;;4.38;3.30;;;;;;;;;;5012507;28;20026;-73
2023/06/09 13:55:23;;;;;;;6.18;3.08;;;;;;;;;;5012351;28;20029;-73
2023/06/09 13:57:50;;;;;;;5.97;3.20;;;;;;;;;;5012424;28;20355;-72
2023/06/09 14:00:16;;;;;;;7.28;3.20;;;;;;;;;;5012649;28;20093;-73
2023/06/09 14:02:42;;;;;;;6.65;3.90;;;;;;;;;;5011822;28;20025;-73
2023/06/09 14:05:10;;;;;;;9.98;4.05;;;;;;;;;;5012598;28;20121;-75
2023/06/09 14:07:36;;;;;;;6.28;3.63;;;;;;;;;;5015764;28;20515;-73
2023/06/09 14:10:04;;;;;;;15.80;3.88;;;;;;;;;;5013258;28;20034;-77
2023/06/09 14:12:30;;;;;;;12.68;3.58;;;;;;;;;;5012171;28;20100;-73
2023/06/09 14:14:56;;;;;;;6.72;3.80;;;;;;;;;;5011681;28;20029;-72
2023/06/09 14:17:22;;;;;;;6.50;3.78;;;;;;;;;;5010478;28;20045;-73
2023/06/09 14:19:48;;;;;;;8.02;4.13;;;;;;;;;;5012135;28;20472;-72
2023/06/09 14:22:14;;;;;;;6.38;4.00;;;;;;;;;;5012293;28;20030;-73
2023/06/09 14:24:40;;;;;;;7.80;3.90;;;;;;;;;;5013311;28;20572;-73
2023/06/09 14:27:07;;;;;;;7.90;3.83;;;;;;;;;;5012606;28;20030;-73
2023/06/09 14:29:33;;;;;;;11.85;3.60;;;;;;;;;;5011364;28;20021;-74
2023/06/09 14:32:00;;;;;;;9.65;4.28;;;;;;;;;;5011951;28;20033;-73